Flight Track Log - Related Links

Times and Time Zones

All times are in EDT time to prevent confusion due to time zone crossing. See the N4978T flight status page for this flight to view local times or setup timezone preferences in your user account.

Time Position Orientation Groundspeed Altitude Reporting Facility
EDT Latitude Longitude Course Direction KTS MPH feet Rate Location/Type
Tue 04:04:41 PM 34.0167 -118.4667 270° West 137 158 800  Level Southern California TRACON
Tue 04:05:41 PM 34.0167 -118.4833 270° West 102 117 1,600 842 Climbing Southern California TRACON
Tue 04:06:35 PM 34.0167 -118.5167 270° West 95 109 2,400 767 Climbing Southern California TRACON
Tue 04:07:07 PM 34.0086 -118.5333 240° Southwest 91 105 2,700 574 Climbing Los Angeles Center
Tue 04:08:09 PM 34.0086 -118.5628 270° West 90 104 3,300 581 Climbing Los Angeles Center
Tue 04:09:11 PM 34.0233 -118.5519 31° Northeast 89 102 3,900 435 Climbing Los Angeles Center
Tue 04:10:13 PM 34.0186 -118.5194 100° East 98 113 4,200 339 Climbing Los Angeles Center
Tue 04:11:15 PM 34.0125 -118.4803 101° East 118 136 4,600 387 Climbing Los Angeles Center
Tue 04:12:17 PM 33.9936 -118.4519 129° Southeast 114 131 5,000 242 Climbing Los Angeles Center
Tue 04:13:19 PM 33.9681 -118.4283 143° Southeast 111 128 5,100 48 Climbing Los Angeles Center
Tue 04:14:21 PM 33.9319 -118.4075 154° Southeast 132 152 5,100  Level Los Angeles Center
Tue 04:15:23 PM 33.8931 -118.3917 161° South 141 162 5,100  Level Los Angeles Center
Tue 04:16:25 PM 33.8556 -118.3761 161° South 144 166 5,100  Level Los Angeles Center
Tue 04:17:27 PM 33.8192 -118.3597 159° South 142 163 5,100  Level Los Angeles Center
Tue 04:18:29 PM 33.7750 -118.3350 155° Southeast 143 165 5,100  Level Los Angeles Center
Tue 04:19:31 PM 33.7594 -118.2847 110° East 151 174 5,100  Level Los Angeles Center
Tue 04:20:33 PM 33.7481 -118.2369 106° East 153 176 5,100 97 Level Los Angeles Center
Tue 04:21:35 PM 33.7567 -118.1903 77° East 145 167 5,300 244 Climbing Los Angeles Center
Tue 04:22:36 PM 33.7653 -118.1447 77° East 143 165 5,600 244 Climbing Los Angeles Center
Tue 04:23:38 PM 33.7742 -118.0994 77° East 141 162 5,800 281 Climbing Los Angeles Center
Tue 04:24:44 PM 33.7833 -118.0500 77° East 135 155 6,200 142 Climbing Southern California TRACON
Tue 04:25:45 PM 33.7500 -118.0167 140° Southeast 162 186 6,100 -50 Descending Southern California TRACON
Tue 04:26:45 PM 33.7167 -117.9833 140° Southeast 153 176 6,100 -50 Level Southern California TRACON
Tue 04:27:45 PM 33.6833 -117.9500 140° Southeast 158 182 6,000 -50 Descending Southern California TRACON
Tue 04:28:45 PM 33.6667 -117.9167 121° Southeast 157 181 6,000 52 Level Southern California TRACON
Tue 04:29:40 PM 33.6333 -117.8833 140° Southeast 156 180 6,100  Climbing Southern California TRACON
Tue 04:30:46 PM 33.6000 -117.8333 129° Southeast 157 181 6,000 -198 Descending Southern California TRACON
Tue 04:31:41 PM 33.5667 -117.8000 140° Southeast 167 192 5,700 -261 Descending Southern California TRACON
Tue 04:32:41 PM 33.5333 -117.7667 140° Southeast 162 186 5,500 -200 Descending Southern California TRACON
Tue 04:33:41 PM 33.5000 -117.7333 140° Southeast 161 185 5,300 -248 Descending Southern California TRACON
Tue 04:34:42 PM 33.4667 -117.6833 129° Southeast 163 188 5,000 -99 Descending Southern California TRACON
Tue 04:35:42 PM 33.4333 -117.6500 140° Southeast 154 177 5,100  Climbing Southern California TRACON
Tue 04:36:42 PM 33.4167 -117.6167 121° Southeast 151 174 5,000 -65 Descending Southern California TRACON
Tue 04:37:15 PM 33.3969 -117.5994 144° Southeast 153 176 5,000 63 Level Los Angeles Center
Tue 04:38:17 PM 33.3672 -117.5644 135° Southeast 151 174 5,100 48 Climbing Los Angeles Center
Tue 04:39:19 PM 33.3367 -117.5281 135° Southeast 153 176 5,100  Level Los Angeles Center
Tue 04:40:21 PM 33.2994 -117.4853 136° Southeast 154 177 5,100  Level Los Angeles Center
Tue 04:41:23 PM 33.2689 -117.4492 135° Southeast 154 177 5,100  Level Los Angeles Center
Tue 04:42:25 PM 33.2475 -117.4067 121° Southeast 152 175 5,100 -48 Level Los Angeles Center
Tue 04:43:27 PM 33.2347 -117.3575 107° East 152 175 5,000  Descending Los Angeles Center
Tue 04:44:29 PM 33.2206 -117.3094 109° East 153 176 5,100 -48 Climbing Los Angeles Center
Tue 04:45:31 PM 33.2083 -117.2594 106° East 154 177 4,900 -386 Descending Los Angeles Center
Tue 04:46:49 PM 33.2167 -117.1833 83° East 164 189 4,200 -333 Descending Southern California TRACON
Tue 04:47:55 PM 33.2167 -117.1333 90° East 148 170 4,100 -50 Descending Southern California TRACON
Tue 04:48:49 PM 33.2333 -117.0833 68° East 144 166 4,100 -158 Level Southern California TRACON
Tue 04:49:49 PM 33.2000 -117.0667 157° South 138 159 3,800 -400 Descending Southern California TRACON
Tue 04:50:49 PM 33.1667 -117.0833 203° Southwest 129 148 3,300 -211 Descending Southern California TRACON
Tue 04:51:43 PM 33.1500 -117.1167 239° Southwest 111 128 3,400 -316 Climbing Southern California TRACON
Tue 04:52:43 PM 33.1500 -117.1500 270° West 116 133 2,700 -694 Descending Southern California TRACON
Tue 04:53:44 PM 33.1500 -117.1833 270° West 118 136 2,000 -694 Descending Southern California TRACON
Tue 04:54:44 PM 33.1333 -117.2333 248° West 110 127 1,300 -600 Descending Southern California TRACON
Tue 04:55:44 PM 33.1333 -117.2500 270° West 85 98 800 -500 Descending Southern California TRACON

Login

Don't have an account? Register now (free) for customized features, flight alerts, and more!